Time;durP1;ratioP1;P1;durP2;ratioP2;P2;SDS_P1;SDS_P2;PMS_P1;PMS_P2;Temp;Humidity;BMP_temperature;BMP_pressure;BME280_temperature;BME280_humidity;BME280_pressure;Samples;Min_cycle;Max_cycle;Signal;HPM_P1;HPM_P2
2022/05/24 00:01:33;;;;;;;4.47;3.70;;;17.90;99.90;;;;;;4936914;29;20206;-90
2022/05/24 00:04:01;;;;;;;3.53;3.22;;;17.90;99.90;;;;;;4936576;29;20230;-89
2022/05/24 00:06:31;;;;;;;5.80;3.03;;;17.90;99.90;;;;;;4937372;29;20214;-90
2022/05/24 00:09:00;;;;;;;3.00;2.80;;;18.00;99.90;;;;;;4936965;29;20210;-89
2022/05/24 00:11:34;;;;;;;5.07;3.42;;;17.90;99.90;;;;;;4936818;29;20269;-88
2022/05/24 00:14:02;;;;;;;3.20;3.00;;;18.00;99.90;;;;;;4936796;29;20229;-89
2022/05/24 00:16:31;;;;;;;4.05;3.30;;;18.00;99.90;;;;;;4936901;29;20209;-89
2022/05/24 00:18:59;;;;;;;4.03;3.63;;;18.00;99.90;;;;;;4937035;29;20212;-89
2022/05/24 00:21:28;;;;;;;3.97;3.63;;;18.00;99.90;;;;;;4936244;29;20202;-89
2022/05/24 00:23:56;;;;;;;3.75;3.45;;;18.00;99.90;;;;;;4936687;29;20237;-90
2022/05/24 00:26:29;;;;;;;4.50;3.55;;;18.00;99.90;;;;;;4936882;29;20214;-89
2022/05/24 00:28:59;;;;;;;4.47;3.80;;;18.00;99.90;;;;;;4936825;29;20202;-89
2022/05/24 00:31:28;;;;;;;4.22;3.83;;;18.00;99.90;;;;;;4936141;29;20214;-89
2022/05/24 00:33:56;;;;;;;3.67;3.38;;;18.00;99.90;;;;;;4936419;29;20226;-89
2022/05/24 00:36:24;;;;;;;5.32;4.15;;;18.00;99.90;;;;;;4935044;29;20214;-89
2022/05/24 00:38:53;;;;;;;5.50;3.95;;;18.00;99.90;;;;;;4936551;29;20269;-89
2022/05/24 00:41:26;;;;;;;3.92;3.58;;;18.00;99.90;;;;;;4936460;29;20205;-89
2022/05/24 00:43:58;;;;;;;9.63;4.18;;;18.00;99.90;;;;;;4936468;29;20230;-89
2022/05/24 00:46:33;;;;;;;4.40;3.78;;;18.00;99.90;;;;;;4936573;29;20229;-90
2022/05/24 00:49:08;;;;;;;3.95;3.47;;;18.10;99.90;;;;;;4936200;29;20205;-92
2022/05/24 00:51:40;;;;;;;5.05;4.00;;;18.10;99.90;;;;;;4936220;29;20217;-90
2022/05/24 00:54:08;;;;;;;3.97;3.38;;;18.00;99.90;;;;;;4936019;29;20278;-89
2022/05/24 00:56:47;;;;;;;3.47;3.17;;;18.00;99.90;;;;;;4936216;29;20241;-90
2022/05/24 00:59:24;;;;;;;3.78;3.47;;;18.00;99.90;;;;;;4936720;29;20214;-90
2022/05/24 01:01:55;;;;;;;7.10;4.43;;;18.00;99.90;;;;;;4935817;29;20233;-90
2022/05/24 01:04:24;;;;;;;5.25;3.45;;;18.00;99.90;;;;;;4935780;29;20268;-89
2022/05/24 01:06:53;;;;;;;3.78;3.28;;;18.00;99.90;;;;;;4936190;29;20268;-89
2022/05/24 01:09:26;;;;;;;3.78;3.47;;;18.00;99.90;;;;;;4935893;29;20258;-90
2022/05/24 01:11:58;;;;;;;3.22;3.03;;;17.90;99.90;;;;;;4935688;29;20233;-90
2022/05/24 01:14:27;;;;;;;6.47;3.08;;;17.70;99.90;;;;;;4936096;29;20233;-90
2022/05/24 01:16:59;;;;;;;3.35;3.05;;;17.70;99.90;;;;;;4935751;29;20214;-89
2022/05/24 01:19:36;;;;;;;3.20;2.90;;;17.60;99.90;;;;;;4935910;29;20214;-90
2022/05/24 01:22:21;;;;;;;3.60;3.30;;;17.60;99.90;;;;;;4935965;29;20251;-89
2022/05/24 01:24:55;;;;;;;4.13;3.70;;;17.60;99.90;;;;;;4935938;29;20261;-89
2022/05/24 01:27:25;;;;;;;3.78;3.47;;;17.50;99.90;;;;;;4935474;29;20230;-89
2022/05/24 01:29:53;;;;;;;13.65;3.20;;;17.50;99.90;;;;;;4935381;29;20214;-89
2022/05/24 01:37:54;;;;;;;3.83;3.47;;;17.50;99.90;;;;;;4935468;29;20234;-89
2022/05/24 01:40:22;;;;;;;4.38;3.97;;;17.50;99.90;;;;;;4935457;29;20237;-90
2022/05/24 01:42:52;;;;;;;9.50;3.80;;;17.50;99.90;;;;;;4935366;29;20209;-89
2022/05/24 01:45:28;;;;;;;11.25;3.63;;;17.50;99.90;;;;;;4935348;29;20308;-90
2022/05/24 01:48:00;;;;;;;3.67;3.38;;;17.50;99.90;;;;;;4935106;29;20264;-89
2022/05/24 01:50:31;;;;;;;5.28;3.75;;;17.50;99.90;;;;;;4935306;29;20326;-89
2022/05/24 01:53:07;;;;;;;4.78;4.10;;;17.50;99.90;;;;;;4935316;29;20286;-89
2022/05/24 01:55:39;;;;;;;3.95;3.55;;;17.50;99.90;;;;;;4935409;29;20240;-89
2022/05/24 01:58:13;;;;;;;3.70;3.40;;;17.60;99.90;;;;;;4935868;29;20285;-89
2022/05/24 02:00:46;;;;;;;3.70;3.40;;;17.60;99.90;;;;;;4935217;29;20222;-89
2022/05/24 02:03:15;;;;;;;4.50;4.10;;;17.50;99.90;;;;;;4935297;29;20276;-89
2022/05/24 02:05:43;;;;;;;3.85;3.55;;;17.50;99.90;;;;;;4935222;29;20253;-90
2022/05/24 02:08:14;;;;;;;16.08;4.20;;;17.50;99.90;;;;;;4935468;29;20214;-89
2022/05/24 02:10:56;;;;;;;5.07;3.60;;;17.50;99.90;;;;;;4935010;29;20292;-89
2022/05/24 02:13:31;;;;;;;3.53;3.22;;;17.50;99.90;;;;;;4935289;29;20229;-89
2022/05/24 02:16:06;;;;;;;5.40;4.18;;;17.40;99.90;;;;;;4935605;29;20225;-89
2022/05/24 02:18:35;;;;;;;6.55;4.70;;;17.50;99.90;;;;;;4935155;29;20249;-90
2022/05/24 02:21:03;;;;;;;6.03;5.43;;;17.50;99.90;;;;;;4935201;29;20209;-90
2022/05/24 02:23:40;;;;;;;4.60;4.20;;;17.50;99.90;;;;;;4935006;29;20229;-89
2022/05/24 02:26:11;;;;;;;4.93;4.47;;;17.50;99.90;;;;;;4935275;29;20229;-87
2022/05/24 02:28:41;;;;;;;4.68;4.28;;;17.50;99.90;;;;;;4935301;29;20206;-88
2022/05/24 02:31:12;;;;;;;4.72;4.32;;;17.50;99.90;;;;;;4934823;29;20245;-88
2022/05/24 02:33:41;;;;;;;4.72;4.32;;;17.50;99.90;;;;;;4935065;29;20238;-88
2022/05/24 02:36:09;;;;;;;5.40;4.90;;;17.50;99.90;;;;;;4934759;29;20262;-87
2022/05/24 02:38:38;;;;;;;6.57;4.38;;;17.50;99.90;;;;;;4934950;29;20210;-87
2022/05/24 02:43:53;;;;;;;7.43;4.18;;;17.50;99.90;;;;;;4935103;29;20331;-87
2022/05/24 02:46:22;;;;;;;4.95;4.32;;;17.50;99.90;;;;;;4935074;29;20225;-87
2022/05/24 02:48:50;;;;;;;4.18;3.78;;;17.50;99.90;;;;;;4934933;29;20202;-88
2022/05/24 02:51:19;;;;;;;7.93;3.97;;;17.50;99.90;;;;;;4934826;29;20210;-88
2022/05/24 02:53:47;;;;;;;4.80;4.30;;;17.50;99.90;;;;;;4934999;29;20242;-88
2022/05/24 02:56:16;;;;;;;6.78;4.63;;;17.50;99.90;;;;;;4935373;29;20242;-88
2022/05/24 02:58:44;;;;;;;4.90;3.85;;;17.50;99.90;;;;;;4935096;29;20217;-87
2022/05/24 03:01:18;;;;;;;4.43;4.03;;;17.50;99.90;;;;;;4937997;29;20277;-87
2022/05/24 03:03:48;;;;;;;6.43;3.80;;;17.40;99.90;;;;;;4937948;29;20230;-88
2022/05/24 03:06:17;;;;;;;4.43;3.75;;;17.40;99.90;;;;;;4938316;29;20278;-87
2022/05/24 03:14:14;;;;;;;3.97;3.72;;;17.40;99.90;;;;;;4937833;29;20209;-87
2022/05/24 03:14:22;;;;;;;3.22;3.03;;;17.40;99.90;;;;;;4937604;29;20226;-87
2022/05/24 03:16:53;;;;;;;4.22;3.88;;;17.40;99.90;;;;;;4937708;29;20234;-87
2022/05/24 03:19:23;;;;;;;4.45;3.90;;;17.40;99.90;;;;;;4938333;29;20220;-88
2022/05/24 03:21:52;;;;;;;4.25;3.92;;;17.40;99.90;;;;;;4937842;29;20206;-88
2022/05/24 03:24:20;;;;;;;4.22;3.92;;;17.50;99.90;;;;;;4937780;29;20233;-87
2022/05/24 03:26:48;;;;;;;4.10;3.70;;;17.40;99.90;;;;;;4937553;29;20226;-88
2022/05/24 03:29:17;;;;;;;4.68;4.28;;;17.40;99.90;;;;;;4938116;29;20273;-88
2022/05/24 03:31:45;;;;;;;4.53;4.05;;;17.40;99.90;;;;;;4937158;29;20213;-88
2022/05/24 03:34:15;;;;;;;5.28;4.78;;;17.50;99.90;;;;;;4937868;29;20229;-87
2022/05/24 03:36:43;;;;;;;4.20;3.88;;;17.40;99.90;;;;;;4937037;29;20233;-88
2022/05/24 03:39:12;;;;;;;6.68;4.15;;;17.40;99.90;;;;;;4937185;29;20242;-87
2022/05/24 03:41:43;;;;;;;4.55;4.07;;;17.40;99.90;;;;;;4937312;29;20206;-88
2022/05/24 03:44:12;;;;;;;4.30;4.00;;;17.40;99.90;;;;;;4937235;29;20225;-88
2022/05/24 03:46:41;;;;;;;4.93;4.30;;;17.40;99.90;;;;;;4937888;29;20270;-88
2022/05/24 03:49:09;;;;;;;4.78;4.35;;;17.40;99.90;;;;;;4937392;29;20210;-88
2022/05/24 03:51:39;;;;;;;5.30;4.80;;;17.40;99.90;;;;;;4936824;29;20236;-88
2022/05/24 03:54:08;;;;;;;4.93;4.15;;;17.40;99.90;;;;;;4937719;29;20230;-88
2022/05/24 03:56:37;;;;;;;6.22;4.05;;;17.40;99.90;;;;;;4937080;29;20206;-88
2022/05/24 03:59:06;;;;;;;5.22;4.80;;;17.30;99.90;;;;;;4937352;29;20206;-87
2022/05/24 04:01:34;;;;;;;4.97;4.50;;;17.40;99.90;;;;;;4937135;29;20209;-87
2022/05/24 04:04:03;;;;;;;4.07;3.78;;;17.40;99.90;;;;;;4936771;29;20225;-87
2022/05/24 04:06:31;;;;;;;5.25;4.75;;;17.40;99.90;;;;;;4937349;29;20261;-87
2022/05/24 04:09:01;;;;;;;4.07;3.78;;;17.50;99.90;;;;;;4937093;29;20279;-87
2022/05/24 04:11:30;;;;;;;4.65;4.25;;;17.50;99.90;;;;;;4936736;29;20205;-87
2022/05/24 04:13:59;;;;;;;3.95;3.65;;;17.50;99.90;;;;;;4937026;29;20371;-87
2022/05/24 04:16:27;;;;;;;5.18;4.15;;;17.50;99.90;;;;;;4936875;29;20206;-88
2022/05/24 04:18:57;;;;;;;4.93;4.45;;;17.50;99.90;;;;;;4937041;29;20241;-88
2022/05/24 04:21:25;;;;;;;4.82;4.43;;;17.60;99.90;;;;;;4936806;29;20224;-88
2022/05/24 04:23:53;;;;;;;6.53;3.40;;;17.70;99.90;;;;;;4936976;29;20226;-87
2022/05/24 04:26:23;;;;;;;4.53;4.05;;;17.70;99.90;;;;;;4936753;29;20288;-88
2022/05/24 04:28:51;;;;;;;4.25;3.75;;;17.80;99.90;;;;;;4936710;29;20210;-87
2022/05/24 04:31:20;;;;;;;4.45;3.63;;;17.80;99.90;;;;;;4936532;29;20214;-87
2022/05/24 04:33:48;;;;;;;4.20;3.85;;;17.90;99.90;;;;;;4936310;29;20310;-88
2022/05/24 04:36:17;;;;;;;5.07;3.72;;;17.90;99.90;;;;;;4936168;29;20209;-88
2022/05/24 04:38:45;;;;;;;3.20;3.00;;;18.00;99.90;;;;;;4936399;29;20266;-88
2022/05/24 04:44:05;;;;;;;3.50;3.20;;;18.10;99.90;;;;;;4936355;29;20255;-87
2022/05/24 04:49:17;;;;;;;3.72;3.40;;;18.20;99.90;;;;;;4935279;29;20205;-87
2022/05/24 04:51:45;;;;;;;3.83;3.50;;;18.20;99.90;;;;;;4935974;29;20237;-88
2022/05/24 04:54:14;;;;;;;7.80;3.88;;;18.20;99.90;;;;;;4936212;29;20249;-88
2022/05/24 04:56:42;;;;;;;4.13;3.72;;;18.30;99.90;;;;;;4936249;29;20202;-88
2022/05/24 04:59:12;;;;;;;3.75;3.45;;;18.30;99.90;;;;;;4936014;29;20205;-88
2022/05/24 05:01:43;;;;;;;3.88;3.58;;;18.30;99.90;;;;;;4935703;29;20213;-88
2022/05/24 05:04:12;;;;;;;3.63;3.33;;;18.30;99.90;;;;;;4935951;29;20240;-88
2022/05/24 05:06:43;;;;;;;3.75;3.33;;;18.30;99.90;;;;;;4935700;29;20210;-88
2022/05/24 05:09:12;;;;;;;3.42;3.20;;;18.20;99.90;;;;;;4935993;29;20214;-88
2022/05/24 05:11:40;;;;;;;4.70;3.47;;;18.20;99.90;;;;;;4935784;29;20210;-87
2022/05/24 05:14:10;;;;;;;4.28;3.33;;;18.10;99.90;;;;;;4935829;29;20345;-88
2022/05/24 05:17:18;;;;;;;3.65;3.33;;;18.10;99.90;;;;;;4935795;29;20210;-87
2022/05/24 05:19:47;;;;;;;13.48;3.17;;;18.10;99.90;;;;;;4936105;29;20229;-88
2022/05/24 05:22:21;;;;;;;4.63;3.38;;;18.10;99.90;;;;;;4935016;29;20241;-88
2022/05/24 05:24:49;;;;;;;3.03;2.78;;;18.10;99.90;;;;;;4935512;29;20289;-88
2022/05/24 05:27:18;;;;;;;3.63;3.33;;;18.20;99.90;;;;;;4935800;29;20276;-87
2022/05/24 05:32:34;;;;;;;3.65;3.35;;;18.40;99.90;;;;;;4935238;29;20201;-87
2022/05/24 05:35:03;;;;;;;7.47;3.30;;;18.60;99.90;;;;;;4934995;29;20205;-85
2022/05/24 05:37:33;;;;;;;3.28;3.00;;;18.60;99.90;;;;;;4935483;29;20242;-87
2022/05/24 05:40:04;;;;;;;5.50;3.50;;;18.60;99.90;;;;;;4935766;29;20244;-88
2022/05/24 05:42:34;;;;;;;3.90;3.40;;;18.70;99.90;;;;;;4935304;29;20210;-88
2022/05/24 05:45:06;;;;;;;3.53;3.22;;;18.60;99.90;;;;;;4935469;29;20236;-87
2022/05/24 05:47:36;;;;;;;3.08;2.83;;;18.60;99.90;;;;;;4935290;29;20226;-88
2022/05/24 05:50:05;;;;;;;3.33;2.92;;;18.60;99.90;;;;;;4935544;29;20234;-87
2022/05/24 05:52:33;;;;;;;3.10;2.90;;;18.60;99.90;;;;;;4935247;29;20202;-88
2022/05/24 05:55:02;;;;;;;3.42;3.13;;;18.60;99.90;;;;;;4935683;29;20218;-88
2022/05/24 05:57:30;;;;;;;3.40;2.80;;;18.70;99.90;;;;;;4935334;29;20209;-88
2022/05/24 05:59:59;;;;;;;6.30;3.15;;;18.80;99.90;;;;;;4935135;29;20293;-88
2022/05/24 06:02:27;;;;;;;4.18;3.78;;;18.90;99.90;;;;;;4935080;29;20268;-88
2022/05/24 06:04:57;;;;;;;3.30;3.05;;;18.80;99.90;;;;;;4935026;29;20320;-88
2022/05/24 06:07:25;;;;;;;2.75;2.55;;;18.90;99.90;;;;;;4935434;29;20225;-88
2022/05/24 06:09:54;;;;;;;3.67;3.33;;;19.00;99.90;;;;;;4935147;29;20284;-88
2022/05/24 06:12:22;;;;;;;4.22;2.90;;;19.00;99.90;;;;;;4935537;29;20213;-87
2022/05/24 06:14:51;;;;;;;3.33;3.10;;;19.10;99.90;;;;;;4935218;29;20285;-88
2022/05/24 06:17:26;;;;;;;4.03;3.33;;;19.20;99.90;;;;;;4935239;29;20248;-88
2022/05/24 06:19:59;;;;;;;3.40;3.10;;;19.40;99.90;;;;;;4935063;29;20222;-87
2022/05/24 06:22:28;;;;;;;3.28;2.97;;;19.40;99.90;;;;;;4935256;29;20264;-87
2022/05/24 06:24:57;;;;;;;4.68;3.40;;;19.50;99.90;;;;;;4934899;29;20233;-78
2022/05/24 06:27:26;;;;;;;4.10;3.00;;;19.40;99.90;;;;;;4935153;29;20206;-78
2022/05/24 06:29:54;;;;;;;3.78;2.72;;;19.30;99.90;;;;;;4935275;29;20238;-86
2022/05/24 06:32:23;;;;;;;2.70;2.50;;;19.40;99.90;;;;;;4934403;29;20253;-82
2022/05/24 06:34:53;;;;;;;3.13;2.88;;;19.40;99.90;;;;;;4938489;29;20249;-82
2022/05/24 06:37:23;;;;;;;4.78;3.10;;;19.50;99.90;;;;;;4932814;29;20218;-82
2022/05/24 06:39:51;;;;;;;4.07;2.78;;;19.40;99.90;;;;;;4939572;29;20194;-83
2022/05/24 06:42:20;;;;;;;3.20;2.92;;;19.50;99.90;;;;;;4920500;29;20262;-83
2022/05/24 06:44:48;;;;;;;3.50;3.10;;;19.50;99.90;;;;;;4933344;29;20257;-83
2022/05/24 06:47:18;;;;;;;5.35;3.42;;;19.50;99.90;;;;;;4938720;29;20210;-83
2022/05/24 06:49:49;;;;;;;3.60;3.30;;;19.50;99.90;;;;;;4939014;29;20209;-83
2022/05/24 06:52:17;;;;;;;3.92;3.35;;;19.60;99.90;;;;;;4939103;29;20205;-83
2022/05/24 06:54:47;;;;;;;5.90;3.63;;;19.70;99.90;;;;;;4938310;29;20222;-83
2022/05/24 06:57:17;;;;;;;3.53;3.10;;;19.70;99.90;;;;;;4938767;29;20224;-83
2022/05/24 07:02:31;;;;;;;4.20;3.53;;;19.80;99.90;;;;;;4938614;29;20316;-83
2022/05/24 07:05:01;;;;;;;4.05;3.65;;;19.80;99.90;;;;;;4938669;29;20273;-83
2022/05/24 07:07:32;;;;;;;5.43;3.53;;;19.90;99.90;;;;;;4937965;29;20206;-83
2022/05/24 07:10:03;;;;;;;4.25;3.92;;;19.90;99.90;;;;;;4937967;29;20205;-85
2022/05/24 07:12:32;;;;;;;3.30;2.97;;;19.90;99.90;;;;;;4938034;29;20213;-86
2022/05/24 07:15:00;;;;;;;2.95;2.70;;;19.90;99.90;;;;;;4938288;29;20230;-82
2022/05/24 07:17:29;;;;;;;3.33;3.03;;;20.10;99.90;;;;;;4938701;29;20236;-84
2022/05/24 07:19:57;;;;;;;3.65;3.35;;;20.30;99.90;;;;;;4938864;29;20209;-84
2022/05/24 07:22:25;;;;;;;3.78;3.38;;;20.60;99.90;;;;;;4938800;29;20242;-86
2022/05/24 07:24:53;;;;;;;3.35;3.00;;;20.90;99.90;;;;;;4938444;29;20253;-85
2022/05/24 07:27:24;;;;;;;3.58;3.28;;;21.40;99.90;;;;;;4929364;29;20226;-85
2022/05/24 07:29:52;;;;;;;3.22;3.03;;;22.20;99.90;;;;;;4918755;29;20325;-84
2022/05/24 07:32:20;;;;;;;3.88;3.53;;;22.50;99.90;;;;;;4923894;29;20227;-85
2022/05/24 07:34:49;;;;;;;3.88;3.58;;;22.70;99.90;;;;;;4933428;29;20255;-85
2022/05/24 07:37:21;;;;;;;12.20;3.05;;;23.00;99.90;;;;;;4927365;29;20213;-85
2022/05/24 07:45:47;;;;;;;4.03;3.17;;;23.70;99.90;;;;;;4937513;29;20316;-84
2022/05/24 07:48:11;;;;;;;4.10;3.08;;;27.40;99.90;;;;;;4917994;29;20274;-85
2022/05/24 07:50:40;;;;;;;4.47;4.00;;;28.30;99.90;;;;;;4924095;29;20202;-84
2022/05/24 07:53:09;;;;;;;3.15;2.53;;;29.40;99.70;;;;;;4922472;29;20226;-84
2022/05/24 07:55:38;;;;;;;2.45;2.33;;;29.30;97.00;;;;;;4927005;29;20197;-86
2022/05/24 07:58:08;;;;;;;3.05;2.67;;;29.00;97.10;;;;;;4924929;29;20205;-84
2022/05/24 08:00:36;;;;;;;2.85;2.65;;;29.60;96.90;;;;;;4937805;29;20240;-80
2022/05/24 08:03:06;;;;;;;2.90;2.70;;;30.70;94.30;;;;;;4937779;29;20217;-81
2022/05/24 08:05:36;;;;;;;4.28;2.65;;;31.10;92.40;;;;;;4936701;29;20300;-82
2022/05/24 08:08:07;;;;;;;4.75;3.17;;;31.00;92.60;;;;;;4937824;29;20221;-82
2022/05/24 08:10:36;;;;;;;3.08;2.78;;;31.80;90.80;;;;;;4937388;29;20209;-83
2022/05/24 08:13:07;;;;;;;2.55;2.35;;;32.40;88.10;;;;;;4937517;29;20225;-82
2022/05/24 08:15:37;;;;;;;2.70;2.50;;;32.90;86.70;;;;;;4937597;29;20208;-82
2022/05/24 08:18:06;;;;;;;3.13;2.83;;;32.90;82.80;;;;;;4935322;29;20205;-82
2022/05/24 08:20:34;;;;;;;3.22;2.75;;;32.70;83.20;;;;;;4937464;29;20402;-82
2022/05/24 08:23:03;;;;;;;2.90;2.70;;;32.50;81.00;;;;;;4930804;29;20249;-82
2022/05/24 08:25:39;;;;;;;2.78;2.53;;;31.60;84.50;;;;;;4918386;29;20288;-82
2022/05/24 08:28:08;;;;;;;3.92;3.40;;;31.30;83.80;;;;;;4918561;29;20310;-83
2022/05/24 08:30:39;;;;;;;3.15;2.95;;;30.30;84.30;;;;;;4918153;29;20313;-84
2022/05/24 08:33:08;;;;;;;2.85;2.65;;;29.40;87.10;;;;;;4929764;29;20261;-82
2022/05/24 08:35:37;;;;;;;4.38;3.60;;;28.70;89.40;;;;;;4936402;29;20225;-82
2022/05/24 08:38:17;;;;;;;3.97;2.80;;;29.00;90.30;;;;;;4935122;29;20237;-82
2022/05/24 08:40:47;;;;;;;3.42;3.13;;;30.00;88.40;;;;;;4918356;29;20274;-81
2022/05/24 08:43:58;;;;;;;4.63;2.80;;;30.80;87.80;;;;;;4918458;29;20268;-80
2022/05/24 08:49:21;;;;;;;3.30;3.00;;;32.30;80.20;;;;;;4936469;29;20248;-80
2022/05/24 08:51:55;;;;;;;4.97;3.28;;;31.70;80.70;;;;;;4936467;29;20214;-82
2022/05/24 08:54:40;;;;;;;9.50;2.95;;;30.90;82.00;;;;;;4936351;29;20281;-79
2022/05/24 08:57:12;;;;;;;4.20;3.03;;;30.60;86.60;;;;;;4933023;29;20205;-82
2022/05/24 08:59:47;;;;;;;3.13;2.75;;;30.00;86.70;;;;;;4928278;29;20225;-82
2022/05/24 09:02:16;;;;;;;3.35;3.13;;;30.00;88.50;;;;;;4936243;29;20206;-82
2022/05/24 09:04:45;;;;;;;4.88;2.80;;;30.10;85.40;;;;;;4936034;29;20237;-82
2022/05/24 09:07:23;;;;;;;9.25;3.15;;;30.70;85.70;;;;;;4935160;29;20206;-82
2022/05/24 09:10:02;;;;;;;3.28;2.95;;;31.00;84.00;;;;;;4929892;29;20276;-82
2022/05/24 09:12:43;;;;;;;4.25;3.28;;;31.20;84.00;;;;;;4936262;29;20260;-81
2022/05/24 09:15:18;;;;;;;5.95;3.28;;;31.70;83.50;;;;;;4936143;29;20213;-81
2022/05/24 09:18:01;;;;;;;5.07;3.33;;;31.70;80.30;;;;;;4936498;29;20209;-81
2022/05/24 09:20:39;;;;;;;3.53;3.22;;;31.60;83.10;;;;;;4936130;29;20227;-84
2022/05/24 09:23:13;;;;;;;3.17;2.88;;;31.70;81.70;;;;;;4933048;29;20244;-81
2022/05/24 09:26:00;;;;;;;3.55;2.88;;;31.80;81.80;;;;;;4927282;29;20229;-81
2022/05/24 09:28:47;;;;;;;3.58;3.28;;;32.10;81.30;;;;;;4936414;29;20338;-81
2022/05/24 09:31:31;;;;;;;3.75;3.20;;;32.30;79.30;;;;;;4936390;29;20300;-81
2022/05/24 09:34:04;;;;;;;4.57;3.65;;;32.40;80.40;;;;;;4936336;29;20236;-81
2022/05/24 09:36:37;;;;;;;4.05;3.13;;;32.40;78.80;;;;;;4936312;29;20213;-81
2022/05/24 09:39:21;;;;;;;4.00;3.17;;;32.20;80.10;;;;;;4936222;29;20212;-81
2022/05/24 09:42:00;;;;;;;5.20;3.08;;;31.90;78.50;;;;;;4935887;29;20285;-81
2022/05/24 09:44:42;;;;;;;4.10;3.08;;;31.30;79.30;;;;;;4935810;29;20229;-80
2022/05/24 09:47:26;;;;;;;7.95;3.67;;;30.30;81.50;;;;;;4936033;29;20198;-81
2022/05/24 09:50:22;;;;;;;4.15;3.72;;;29.30;83.40;;;;;;4929536;29;20222;-80
2022/05/24 09:53:13;;;;;;;4.70;3.45;;;28.70;85.50;;;;;;4927328;29;20207;-81
2022/05/24 09:55:47;;;;;;;4.40;3.40;;;28.30;87.00;;;;;;4916496;29;20215;-81
2022/05/24 09:58:29;;;;;;;4.32;3.38;;;27.60;88.20;;;;;;4923034;29;20216;-81
2022/05/24 10:01:00;;;;;;;5.53;3.58;;;27.20;89.40;;;;;;4936129;29;20221;-81
2022/05/24 10:03:32;;;;;;;3.35;3.03;;;27.10;90.50;;;;;;4916668;29;20226;-81
2022/05/24 10:06:20;;;;;;;4.13;3.80;;;27.10;91.10;;;;;;4917226;29;20278;-82
2022/05/24 10:08:51;;;;;;;4.43;3.53;;;27.30;90.90;;;;;;4919078;29;20202;-81
2022/05/24 10:11:29;;;;;;;4.00;3.63;;;27.70;90.60;;;;;;4920341;29;20226;-81
2022/05/24 10:14:10;;;;;;;6.03;3.70;;;27.90;90.00;;;;;;4926030;29;20256;-83
2022/05/24 10:16:46;;;;;;;2.80;2.60;;;28.10;90.20;;;;;;4939895;29;20202;-81
2022/05/24 10:19:43;;;;;;;3.97;3.10;;;28.20;91.00;;;;;;4930012;29;20269;-82
2022/05/24 10:22:26;;;;;;;4.75;3.45;;;28.70;90.40;;;;;;4911641;29;20214;-81
2022/05/24 10:25:08;;;;;;;3.80;3.17;;;29.10;89.10;;;;;;4921986;29;20252;-81
2022/05/24 10:27:45;;;;;;;2.80;2.60;;;29.20;90.00;;;;;;4929797;29;20254;-83
2022/05/24 10:30:20;;;;;;;3.45;3.15;;;29.10;87.50;;;;;;4931589;29;20241;-82
2022/05/24 10:39:08;;;;;;;3.20;2.90;;;27.50;90.40;;;;;;4938336;29;20246;-82
2022/05/24 10:41:49;;;;;;;3.25;2.95;;;27.10;91.60;;;;;;4921000;29;20209;-81
2022/05/24 10:44:22;;;;;;;3.33;3.03;;;26.80;91.30;;;;;;4929077;29;20317;-82
2022/05/24 10:47:00;;;;;;;5.40;3.45;;;26.70;91.40;;;;;;4920651;29;20245;-81
2022/05/24 10:49:35;;;;;;;4.30;3.28;;;26.60;91.50;;;;;;4935527;29;20290;-80
2022/05/24 10:52:10;;;;;;;3.92;3.53;;;26.40;92.00;;;;;;4919501;29;20257;-81
2022/05/24 10:54:46;;;;;;;3.92;3.55;;;26.20;92.30;;;;;;4919857;29;20230;-81
2022/05/24 10:57:17;;;;;;;5.22;3.30;;;26.60;92.40;;;;;;4919992;29;20242;-82
2022/05/24 10:59:58;;;;;;;3.13;2.92;;;27.60;92.40;;;;;;4920048;29;20214;-81
2022/05/24 11:02:33;;;;;;;6.60;3.63;;;28.60;91.00;;;;;;4920171;29;20258;-83
2022/05/24 11:05:09;;;;;;;5.25;3.10;;;29.40;90.30;;;;;;4919920;29;20251;-81
2022/05/24 11:07:38;;;;;;;3.28;2.97;;;30.20;89.00;;;;;;4919732;29;20214;-81
2022/05/24 11:10:23;;;;;;;3.15;2.85;;;30.60;85.90;;;;;;4920145;29;20249;-81
2022/05/24 11:12:53;;;;;;;6.78;3.22;;;31.30;85.60;;;;;;4920433;29;20215;-82
2022/05/24 11:15:32;;;;;;;3.80;2.67;;;31.00;83.20;;;;;;4926869;29;20270;-82
2022/05/24 11:18:03;;;;;;;3.38;3.08;;;30.70;83.40;;;;;;4919362;29;20214;-82
2022/05/24 11:20:39;;;;;;;4.30;2.95;;;30.10;83.30;;;;;;4928215;29;20205;-81
2022/05/24 11:23:14;;;;;;;4.80;3.05;;;29.50;84.20;;;;;;4937784;29;20229;-82
2022/05/24 11:25:49;;;;;;;3.42;3.13;;;29.40;86.70;;;;;;4938422;29;20229;-82
2022/05/24 11:28:23;;;;;;;4.55;2.85;;;29.40;85.70;;;;;;4938374;29;20205;-81
2022/05/24 11:30:52;;;;;;;3.72;2.90;;;29.40;85.80;;;;;;4938048;29;20249;-81
2022/05/24 11:33:35;;;;;;;3.67;2.83;;;29.40;86.20;;;;;;4922439;29;20223;-80
2022/05/24 11:36:23;;;;;;;3.35;2.65;;;29.00;86.00;;;;;;4918716;29;20207;-81
2022/05/24 11:38:51;;;;;;;3.40;2.67;;;29.40;85.70;;;;;;4916915;29;20226;-81
2022/05/24 11:41:31;;;;;;;2.53;2.22;;;29.50;84.90;;;;;;4921987;29;20274;-81
2022/05/24 11:44:04;;;;;;;3.90;2.47;;;29.70;86.10;;;;;;4928592;29;20260;-86
2022/05/24 11:46:44;;;;;;;3.85;2.60;;;29.90;83.70;;;;;;4937083;29;20286;-86
2022/05/24 11:49:33;;;;;;;3.42;2.90;;;29.90;83.20;;;;;;4927016;29;20206;-86
2022/05/24 11:52:22;;;;;;;2.67;2.45;;;29.60;83.20;;;;;;4935163;29;20245;-86
2022/05/24 11:54:57;;;;;;;3.75;2.70;;;29.40;83.90;;;;;;4926648;29;20234;-86
2022/05/24 11:57:39;;;;;;;4.00;2.85;;;29.10;84.70;;;;;;4919746;29;20198;-87
2022/05/24 12:00:10;;;;;;;3.55;3.25;;;29.00;86.10;;;;;;4933868;29;20211;-87
2022/05/24 12:08:43;;;;;;;3.33;3.00;;;28.20;86.90;;;;;;4919347;29;20227;-86
2022/05/24 12:11:18;;;;;;;3.85;3.08;;;28.40;87.00;;;;;;4926297;29;20280;-86
2022/05/24 12:14:17;;;;;;;2.75;2.53;;;28.70;85.80;;;;;;4937462;29;20233;-86
2022/05/24 12:17:08;;;;;;;5.82;2.63;;;28.90;85.00;;;;;;4937399;29;20265;-87
2022/05/24 12:19:50;;;;;;;3.40;3.10;;;28.90;84.80;;;;;;4933445;29;20198;-87
2022/05/24 12:22:22;;;;;;;3.60;3.30;;;28.70;85.40;;;;;;4918765;29;20213;-87
2022/05/24 12:24:54;;;;;;;3.00;2.72;;;28.40;86.90;;;;;;4925907;29;20230;-88
2022/05/24 12:27:47;;;;;;;3.15;2.88;;;28.10;86.30;;;;;;4928343;29;20209;-87
2022/05/24 12:30:39;;;;;;;13.52;3.17;;;27.60;88.80;;;;;;4932577;29;20257;-86
2022/05/24 12:33:23;;;;;;;3.63;3.33;;;27.40;89.10;;;;;;4917925;29;20237;-87
2022/05/24 12:35:55;;;;;;;3.97;3.00;;;27.20;89.50;;;;;;4927368;29;20206;-86
2022/05/24 12:38:26;;;;;;;2.90;2.70;;;27.00;89.90;;;;;;4937080;29;20257;-87
2022/05/24 12:41:15;;;;;;;4.13;2.72;;;26.50;90.40;;;;;;4936067;29;20202;-87
2022/05/24 12:43:52;;;;;;;4.03;3.33;;;26.10;90.90;;;;;;4936916;29;20226;-86
2022/05/24 12:46:22;;;;;;;3.47;3.03;;;25.90;91.30;;;;;;4936536;29;20209;-86
2022/05/24 12:48:59;;;;;;;4.13;2.88;;;25.80;91.60;;;;;;4921376;29;20210;-87
2022/05/24 12:51:28;;;;;;;2.83;2.55;;;25.80;91.80;;;;;;4917695;29;20308;-86
2022/05/24 12:54:08;;;;;;;3.47;2.92;;;25.80;92.10;;;;;;4917750;29;20313;-87
2022/05/24 12:56:36;;;;;;;3.38;2.75;;;25.70;91.90;;;;;;4934783;29;20224;-87
2022/05/24 12:59:12;;;;;;;3.83;3.08;;;25.80;92.30;;;;;;4936434;29;20230;-87
2022/05/24 13:01:42;;;;;;;3.33;3.03;;;26.00;92.20;;;;;;4936026;29;20228;-87
2022/05/24 13:04:16;;;;;;;3.05;2.78;;;26.00;92.40;;;;;;4936322;29;20234;-87
2022/05/24 13:06:46;;;;;;;4.97;2.92;;;25.90;92.40;;;;;;4936426;29;20209;-86
2022/05/24 13:09:24;;;;;;;3.25;2.95;;;25.80;92.40;;;;;;4936714;29;20207;-86
2022/05/24 13:11:56;;;;;;;11.40;3.53;;;25.60;92.80;;;;;;4936644;29;20222;-86
2022/05/24 13:14:48;;;;;;;6.25;3.50;;;25.60;92.90;;;;;;4936117;29;20226;-87
2022/05/24 13:17:22;;;;;;;7.15;4.22;;;25.60;93.30;;;;;;4932620;29;20212;-87
2022/05/24 13:19:56;;;;;;;4.38;3.35;;;25.60;93.20;;;;;;4936547;29;20233;-87
2022/05/24 13:22:39;;;;;;;3.58;3.25;;;25.70;93.10;;;;;;4936117;29;20230;-87
2022/05/24 13:25:13;;;;;;;12.75;4.13;;;25.60;93.60;;;;;;4936058;29;20237;-86
2022/05/24 13:27:54;;;;;;;4.22;3.88;;;25.70;93.30;;;;;;4934244;29;20285;-86
2022/05/24 13:33:34;;;;;;;4.15;3.75;;;25.50;93.60;;;;;;4921817;29;20245;-85
2022/05/24 13:36:19;;;;;;;3.88;3.58;;;25.30;93.70;;;;;;4936143;29;20228;-87
2022/05/24 13:38:52;;;;;;;4.63;3.42;;;25.30;94.00;;;;;;4917380;29;20206;-87
2022/05/24 13:41:31;;;;;;;5.47;3.67;;;25.30;93.70;;;;;;4916676;29;20206;-87
2022/05/24 13:44:25;;;;;;;5.38;3.53;;;25.10;93.80;;;;;;4916794;29;20226;-86
2022/05/24 13:46:59;;;;;;;3.97;3.58;;;25.00;94.20;;;;;;4915541;29;20210;-86
2022/05/24 13:49:36;;;;;;;4.47;4.07;;;25.20;94.70;;;;;;4916869;29;20214;-85
2022/05/24 13:52:25;;;;;;;4.38;3.97;;;25.40;93.60;;;;;;4916674;29;20249;-85
2022/05/24 13:55:11;;;;;;;10.80;4.28;;;25.70;93.20;;;;;;4916821;29;20226;-86
2022/05/24 13:57:46;;;;;;;4.13;3.72;;;25.80;93.00;;;;;;4931464;29;20248;-86
2022/05/24 14:00:22;;;;;;;6.45;3.65;;;25.90;93.10;;;;;;4935536;29;20217;-87
2022/05/24 14:03:09;;;;;;;3.75;3.45;;;26.10;92.80;;;;;;4934674;29;20207;-86